Airfield :
LOGIN :

Register | Disclaimer

   EN    FR    IT 

 










Legend :    VFR   Marginal VFR   IFR   Intensive IFR   Very Intensive IFR
Visi :
Ceiling :
>= 8 km
>= 3000ft
5 to 8 km
1000 to 3000 ft
1500m to 5 km
500 to 1000 ft
800 to 1500m
200 to 500 ft
< 800m
< 200 ft
Symbols :   Thunderstorms  Fog  Heavy snow  Heavy precipitations  Wind > 20 kt
SIGMETs :     Misc.  Thunderstorms  Icing  Turbulence  Mountain Waves  Volcanic Ashes






- Airport Elevation : 290 ft
- IATA code : OSI


LDOS - Osijek

EXPIRED METARs :
  • 280300Z 08005KT 3000 BR BKN005 OVC027 02/02 Q1025
  • 280230Z 08006KT 4000 BR BKN007 OVC030 03/02 Q1025
  • 280200Z 10007KT 4000 BR BKN007 OVC030 03/02 Q1025
  • 272200Z 08005KT 3500 BR BKN007 OVC030 04/03 Q1026
  • 280130Z 10006KT 070V130 4000 BR BKN007 OVC030 03/02 Q1025

TAF TAF LDOS
Valid from the 28 at 00:00 until the 29 at 00:00 UTC


272325Z 2800/2900 10005KT 3000 BR SCT010 BKN030 TX06/2813Z TN00/2806Z
TEMPO 2800/2810 1500 BKN005 OVC020
BECMG 2810/2812 11010KT



MET'MAP, your aeronautical weather chart ! - Copyright ORBIFLY December 2007 - Disclaimer

ORBIFLY MET'MAP TEAM :

Programming & Development : Alexandra Zaïnal
Original concept : Baudouin d'Aumeries
Technical & hardware support : Manuel Goepfert
Assistance : Marc-Olivier Méhu




SOURCES & CREDITS :

   NOAA